Time;durP1;ratioP1;P1;durP2;ratioP2;P2;SDS_P1;SDS_P2;PMS_P1;PMS_P2;Temp;Humidity;BMP_temperature;BMP_pressure;BME280_temperature;BME280_humidity;BME280_pressure;Samples;Min_cycle;Max_cycle;Signal;HPM_P1;HPM_P2
2022/10/04 00:00:36;;;;;;;8.95;3.78;;;;;;;11.10;100.00;99866.94;5072630;28;20050;-76
2022/10/04 00:03:21;;;;;;;11.30;4.68;;;;;;;11.09;100.00;99864.41;5072637;28;20116;-76
2022/10/04 00:05:52;;;;;;;11.25;3.97;;;;;;;11.03;100.00;99857.69;5072567;28;20053;-76
2022/10/04 00:08:25;;;;;;;15.13;3.70;;;;;;;11.07;100.00;99881.84;5072553;28;20020;-76
2022/10/04 00:11:23;;;;;;;8.27;4.05;;;;;;;10.97;100.00;99865.78;5072592;28;20028;-76
2022/10/04 00:13:54;;;;;;;11.95;3.70;;;;;;;10.96;100.00;99861.50;5010787;28;20038;-76
2022/10/04 00:16:27;;;;;;;12.68;3.95;;;;;;;10.98;100.00;99873.53;5010399;28;20087;-76
2022/10/04 00:19:02;;;;;;;10.88;3.90;;;;;;;10.93;100.00;99852.06;5010502;28;20034;-76
2022/10/04 00:21:54;;;;;;;10.85;3.67;;;;;;;10.98;100.00;99862.25;5010421;28;20092;-76
2022/10/04 00:24:27;;;;;;;13.43;5.40;;;;;;;10.97;100.00;99864.03;5010098;28;20037;-76
2022/10/04 00:27:23;;;;;;;12.30;3.97;;;;;;;10.94;100.00;99871.13;5010210;28;20034;-76
2022/10/04 00:30:14;;;;;;;10.52;4.18;;;;;;;10.85;100.00;99869.78;4935845;29;20031;-76
2022/10/04 00:32:40;;;;;;;9.32;4.10;;;;;;;10.79;100.00;99874.41;4951956;29;20034;-75
2022/10/04 00:35:23;;;;;;;8.48;3.65;;;;;;;10.77;100.00;99868.44;4951665;29;20047;-75
2022/10/04 00:38:13;;;;;;;9.65;3.53;;;;;;;10.74;100.00;99867.66;4951764;29;20480;-76
2022/10/04 00:40:49;;;;;;;10.23;3.90;;;;;;;10.62;100.00;99854.31;4951740;29;20378;-76
2022/10/04 00:43:40;;;;;;;14.52;5.38;;;;;;;10.65;100.00;99862.84;4951520;28;20045;-76
2022/10/04 00:46:09;;;;;;;;;;;;;;;10.60;100.00;99869.16;4952013;29;20071;-76
2022/10/04 00:48:46;;;;;;;14.23;4.65;;;;;;;10.52;100.00;99872.09;4951735;29;20004;-76
2022/10/04 00:51:21;;;;;;;14.68;4.35;;;;;;;10.47;100.00;99869.69;4989572;28;20084;-76
2022/10/04 00:53:52;;;;;;;10.88;4.40;;;;;;;10.43;100.00;99868.13;5009942;28;20104;-76
2022/10/04 00:56:21;;;;;;;;;;;;;;;10.39;100.00;99858.75;5010160;28;20269;-76
2022/10/04 00:58:56;;;;;;;16.77;4.95;;;;;;;10.31;100.00;99860.00;5009954;28;19912;-76
2022/10/04 01:01:24;;;;;;;14.73;4.60;;;;;;;10.23;100.00;99847.25;5009724;28;20048;-76
2022/10/04 01:03:52;;;;;;;11.88;4.53;;;;;;;10.23;100.00;99858.50;5009936;28;20634;-76
2022/10/04 01:06:20;;;;;;;12.82;4.15;;;;;;;10.20;100.00;99860.41;5043406;28;20055;-76
2022/10/04 01:09:01;;;;;;;11.65;3.92;;;;;;;10.15;100.00;99851.94;5081496;28;20371;-76
2022/10/04 01:11:30;;;;;;;11.85;4.47;;;;;;;10.11;100.00;99856.44;5092096;28;20420;-76
2022/10/04 01:14:07;;;;;;;12.40;4.22;;;;;;;10.12;100.00;99849.47;5091967;28;20027;-76
2022/10/04 01:16:35;;;;;;;13.40;3.85;;;;;;;10.09;100.00;99858.25;5091933;28;20055;-76
2022/10/04 01:19:23;;;;;;;14.85;4.22;;;;;;;10.08;100.00;99858.31;5091852;28;20058;-76
2022/10/04 01:22:06;;;;;;;15.25;5.00;;;;;;;10.04;100.00;99854.16;5091970;28;20024;-76
2022/10/04 01:24:42;;;;;;;11.65;4.50;;;;;;;9.99;100.00;99849.97;5091958;28;20111;-76
2022/10/04 01:27:29;;;;;;;9.15;3.55;;;;;;;9.96;100.00;99847.50;5091806;28;20021;-76
2022/10/04 01:29:55;;;;;;;13.70;4.03;;;;;;;9.93;100.00;99841.56;5092060;28;20020;-76
2022/10/04 01:32:21;;;;;;;13.27;4.50;;;;;;;9.98;100.00;99848.28;5091645;28;20126;-76
2022/10/04 01:34:47;;;;;;;12.45;3.95;;;;;;;10.03;100.00;99847.22;5091915;28;20075;-75
2022/10/04 01:37:13;;;;;;;10.25;3.30;;;;;;;10.10;100.00;99859.94;5091553;28;20467;-76
2022/10/04 01:39:38;;;;;;;11.77;3.88;;;;;;;10.03;100.00;99842.03;5091709;28;20027;-76
2022/10/04 01:42:17;;;;;;;16.55;5.50;;;;;;;10.07;100.00;99844.47;5091679;28;20032;-75
2022/10/04 01:44:54;;;;;;;11.55;4.10;;;;;;;10.18;100.00;99852.66;5091793;28;20022;-76
2022/10/04 01:47:29;;;;;;;11.35;3.53;;;;;;;10.22;100.00;99858.59;5091492;28;20028;-76
2022/10/04 01:49:58;;;;;;;9.25;3.90;;;;;;;10.25;100.00;99848.09;5091616;28;20081;-76
2022/10/04 01:52:36;;;;;;;13.48;3.45;;;;;;;10.23;100.00;99865.47;5091660;28;20058;-76
2022/10/04 01:55:08;;;;;;;8.45;3.55;;;;;;;10.06;100.00;99832.34;5091639;28;20107;-76
2022/10/04 01:57:51;;;;;;;11.55;3.67;;;;;;;10.17;100.00;99853.56;5091669;28;20455;-75
2022/10/04 02:00:21;;;;;;;8.63;3.13;;;;;;;10.18;100.00;99857.88;5091351;28;20036;-76
2022/10/04 02:03:11;;;;;;;12.68;3.42;;;;;;;10.17;100.00;99852.72;5091591;28;20026;-76
2022/10/04 02:05:41;;;;;;;14.23;4.47;;;;;;;10.19;100.00;99859.53;5091602;28;20036;-76
2022/10/04 02:08:17;;;;;;;11.20;3.57;;;;;;;10.18;100.00;99855.25;5092150;28;20020;-76
2022/10/04 02:10:44;;;;;;;12.52;3.97;;;;;;;10.15;100.00;99850.16;5095103;28;20154;-76
2022/10/04 02:13:14;;;;;;;9.18;3.95;;;;;;;10.14;100.00;99850.25;5095088;28;20028;-75
2022/10/04 02:15:39;;;;;;;13.60;3.97;;;;;;;10.18;100.00;99862.22;5095215;28;20020;-76
2022/10/04 02:18:17;;;;;;;15.00;3.58;;;;;;;10.21;100.00;99859.50;5094889;28;20028;-76
2022/10/04 02:20:44;;;;;;;11.05;3.42;;;;;;;10.15;100.00;99855.38;5095331;28;20093;-75
2022/10/04 02:23:10;;;;;;;8.30;3.10;;;;;;;10.14;100.00;99847.66;5094674;28;20371;-75
2022/10/04 02:25:37;;;;;;;14.80;4.00;;;;;;;10.14;100.00;99845.88;5095108;28;20028;-76
2022/10/04 02:28:09;;;;;;;9.23;3.85;;;;;;;10.12;100.00;99845.13;5095001;28;20020;-76
2022/10/04 02:30:41;;;;;;;12.45;3.83;;;;;;;10.10;100.00;99849.53;5094800;28;20024;-76
2022/10/04 02:33:07;;;;;;;10.00;3.42;;;;;;;10.01;100.00;99831.69;5094501;28;20028;-76
2022/10/04 02:35:36;;;;;;;13.32;3.75;;;;;;;10.05;100.00;99854.06;5094681;28;20016;-76
2022/10/04 02:38:21;;;;;;;10.38;3.67;;;;;;;9.99;100.00;99843.94;5094656;28;20020;-76
2022/10/04 02:40:58;;;;;;;11.25;3.35;;;;;;;9.88;100.00;99833.13;5094596;28;20070;-76
2022/10/04 02:43:41;;;;;;;10.30;3.78;;;;;;;9.93;100.00;99851.97;5094467;28;20032;-76
2022/10/04 02:46:28;;;;;;;10.82;4.25;;;;;;;9.88;100.00;99853.94;5094393;28;20513;-76
2022/10/04 02:49:04;;;;;;;10.52;3.38;;;;;;;9.87;100.00;99857.44;5094657;28;20024;-76
2022/10/04 02:52:00;;;;;;;11.50;3.30;;;;;;;9.90;100.00;99863.38;5094354;28;20023;-76
2022/10/04 02:54:30;;;;;;;11.50;3.53;;;;;;;9.89;100.00;99853.84;5031420;28;20556;-76
2022/10/04 02:56:57;;;;;;;12.65;4.05;;;;;;;9.92;100.00;99852.88;5031951;28;20037;-76
2022/10/04 02:59:23;;;;;;;13.63;4.63;;;;;;;9.99;100.00;99854.34;5031345;28;20120;-76
2022/10/04 03:01:57;;;;;;;17.05;4.03;;;;;;;9.94;100.00;99844.13;5031495;28;20029;-76
2022/10/04 03:04:26;;;;;;;9.95;3.92;;;;;;;9.99;100.00;99851.75;5031342;28;20041;-76
2022/10/04 03:06:53;;;;;;;10.93;3.42;;;;;;;9.95;100.00;99851.00;5031271;28;20503;-76
2022/10/04 03:09:21;;;;;;;13.90;3.72;;;;;;;9.90;100.00;99844.28;5031148;28;20026;-76
2022/10/04 03:11:49;;;;;;;12.77;3.40;;;;;;;9.83;100.00;99845.47;5031301;28;20160;-76
2022/10/04 03:14:20;;;;;;;8.15;3.50;;;;;;;9.80;100.00;99841.22;5031276;28;20029;-76
2022/10/04 03:16:49;;;;;;;14.85;3.92;;;;;;;9.75;100.00;99836.22;5031378;28;20025;-76
2022/10/04 03:19:16;;;;;;;11.18;3.92;;;;;;;9.80;100.00;99849.03;5030388;28;20041;-76
2022/10/04 03:21:45;;;;;;;14.32;3.58;;;;;;;9.74;100.00;99838.88;5030955;28;20040;-76
2022/10/04 03:24:17;;;;;;;9.75;3.63;;;;;;;9.75;100.00;99843.16;5030964;28;20120;-76
2022/10/04 03:26:49;;;;;;;13.30;3.97;;;;;;;9.69;100.00;99844.28;5031180;28;20112;-75
2022/10/04 03:29:17;;;;;;;11.52;4.05;;;;;;;9.75;100.00;99857.00;5030897;28;20030;-76
2022/10/04 03:31:45;;;;;;;15.32;3.67;;;;;;;9.72;100.00;99854.53;5067371;28;20040;-76
2022/10/04 03:34:19;;;;;;;10.65;3.90;;;;;;;9.72;100.00;99857.13;5093156;28;20049;-76
2022/10/04 03:36:48;;;;;;;11.68;3.85;;;;;;;9.74;100.00;99852.72;5093456;28;20024;-76
2022/10/04 03:39:22;;;;;;;14.32;4.13;;;;;;;9.74;100.00;99860.53;5093067;28;20091;-76
2022/10/04 03:41:48;;;;;;;13.15;3.90;;;;;;;9.75;100.00;99862.22;5093429;28;20027;-76
2022/10/04 03:44:16;;;;;;;11.13;3.45;;;;;;;9.79;100.00;99868.16;5093084;28;20522;-76
2022/10/04 03:46:44;;;;;;;9.68;3.40;;;;;;;9.78;100.00;99857.81;5093499;28;20450;-76
2022/10/04 03:49:13;;;;;;;11.07;3.60;;;;;;;9.74;100.00;99851.88;5093204;28;20081;-76
2022/10/04 03:51:45;;;;;;;10.35;3.35;;;;;;;9.74;100.00;99857.09;5093264;28;20031;-76
2022/10/04 03:54:17;;;;;;;11.68;4.45;;;;;;;9.73;100.00;99860.56;5092901;28;20558;-76
2022/10/04 03:56:43;;;;;;;11.00;3.75;;;;;;;9.70;100.00;99860.72;5093201;28;20032;-75
2022/10/04 03:59:15;;;;;;;10.05;3.40;;;;;;;9.74;100.00;99863.13;5093412;28;20016;-75
2022/10/04 04:01:48;;;;;;;14.05;3.72;;;;;;;9.69;100.00;99861.59;5093243;28;20024;-76
2022/10/04 04:04:20;;;;;;;15.25;3.80;;;;;;;9.77;100.00;99875.16;5092794;28;20487;-76
2022/10/04 04:07:02;;;;;;;9.68;3.40;;;;;;;9.80;100.00;99869.00;5092817;28;20131;-76
2022/10/04 04:09:49;;;;;;;11.25;3.85;;;;;;;9.82;100.00;99872.38;5092628;28;20012;-75
2022/10/04 04:12:58;;;;;;;11.80;3.70;;;;;;;9.86;100.00;99876.53;5092641;28;20506;-75
2022/10/04 04:15:28;;;;;;;11.13;3.65;;;;;;;9.88;100.00;99872.13;4951900;29;20043;-76
2022/10/04 04:17:54;;;;;;;12.88;3.58;;;;;;;9.80;100.00;99859.44;4952142;29;20114;-76
2022/10/04 04:20:25;;;;;;;13.50;3.78;;;;;;;9.83;100.00;99874.09;4951816;29;20043;-76
2022/10/04 04:22:59;;;;;;;11.30;4.10;;;;;;;9.75;100.00;99859.63;4952101;28;20035;-76
2022/10/04 04:25:26;;;;;;;8.80;4.07;;;;;;;9.75;100.00;99870.03;4951677;29;20611;-76
2022/10/04 04:28:01;;;;;;;10.35;3.92;;;;;;;9.81;100.00;99875.88;4952005;29;20042;-75
2022/10/04 04:30:29;;;;;;;7.95;3.63;;;;;;;9.77;100.00;99874.31;4951479;28;20023;-75
2022/10/04 04:32:56;;;;;;;12.10;4.03;;;;;;;9.79;100.00;99875.09;4951809;29;20094;-76
2022/10/04 04:35:31;;;;;;;11.98;3.97;;;;;;;9.74;100.00;99876.13;4951751;29;20138;-76
2022/10/04 04:38:10;;;;;;;15.20;4.68;;;;;;;9.73;100.00;99881.38;4951953;29;20064;-76
2022/10/04 04:40:36;;;;;;;7.60;3.67;;;;;;;9.70;100.00;99879.75;4951737;29;20050;-75
2022/10/04 04:43:02;;;;;;;15.13;4.07;;;;;;;9.74;100.00;99883.09;4951534;29;20118;-76
2022/10/04 04:45:31;;;;;;;9.30;3.67;;;;;;;9.72;100.00;99888.34;4951419;29;20123;-76
2022/10/04 04:48:00;;;;;;;11.82;4.03;;;;;;;9.67;100.00;99876.44;4951729;29;20030;-76
2022/10/04 04:50:30;;;;;;;11.85;4.53;;;;;;;9.66;100.00;99887.75;4951462;29;20035;-76
2022/10/04 04:53:11;;;;;;;15.77;4.53;;;;;;;9.65;100.00;99884.31;5059973;28;20174;-76
2022/10/04 04:55:43;;;;;;;14.75;4.75;;;;;;;9.57;100.00;99877.72;5092089;28;20024;-76
2022/10/04 04:58:20;;;;;;;18.33;4.30;;;;;;;9.59;100.00;99878.47;5092153;28;20462;-76
2022/10/04 05:00:53;;;;;;;10.40;4.32;;;;;;;9.60;100.00;99881.00;5092263;28;20120;-76
2022/10/04 05:03:19;;;;;;;13.75;4.15;;;;;;;9.65;100.00;99878.22;5091839;28;20016;-76
2022/10/04 05:05:49;;;;;;;13.02;4.80;;;;;;;9.66;100.00;99872.16;5091860;28;20051;-76
2022/10/04 05:08:15;;;;;;;12.65;4.60;;;;;;;9.78;100.00;99900.28;5091927;28;20027;-76
2022/10/04 05:10:45;;;;;;;16.05;4.60;;;;;;;9.75;100.00;99888.22;5092028;28;20039;-76
2022/10/04 05:13:11;;;;;;;;;;;;;;;9.84;100.00;99901.78;5091218;28;20028;-76
2022/10/04 05:15:39;;;;;;;13.63;3.65;;;;;;;9.86;100.00;99900.81;5092005;28;19958;-76
2022/10/04 05:18:20;;;;;;;17.75;4.60;;;;;;;9.83;100.00;99894.91;5092038;28;20051;-76
2022/10/04 05:20:49;;;;;;;;;;;;;;;9.92;100.00;99910.13;5092591;28;20111;-76
2022/10/04 05:23:15;;;;;;;9.85;3.60;;;;;;;9.94;100.00;99919.59;5092005;28;19915;-76
2022/10/04 05:25:40;;;;;;;10.25;3.75;;;;;;;9.90;100.00;99911.94;5091961;28;20028;-76
2022/10/04 05:28:10;;;;;;;8.52;3.78;;;;;;;9.98;100.00;99921.13;5091799;28;20463;-76
2022/10/04 05:30:55;;;;;;;14.27;4.72;;;;;;;9.99;100.00;99928.03;5091572;28;20032;-76
2022/10/04 05:33:35;;;;;;;12.82;3.97;;;;;;;9.99;100.00;99920.25;5091859;28;20026;-76
2022/10/04 05:36:08;;;;;;;9.95;3.90;;;;;;;10.10;100.00;99931.97;5091941;28;20024;-76
2022/10/04 05:38:53;;;;;;;14.00;4.35;;;;;;;10.08;100.00;99921.63;5091676;28;20012;-76
2022/10/04 05:41:38;;;;;;;13.55;4.82;;;;;;;10.31;100.00;99933.72;5091736;28;20103;-76
2022/10/04 05:44:25;;;;;;;15.15;3.78;;;;;;;10.50;100.00;99936.44;5093125;28;20367;-76
2022/10/04 05:46:53;;;;;;;10.07;3.65;;;;;;;10.61;100.00;99936.81;5095793;28;20020;-76
2022/10/04 05:49:21;;;;;;;11.55;4.22;;;;;;;10.76;100.00;99937.94;5095151;28;20031;-76
2022/10/04 05:51:52;;;;;;;16.90;4.78;;;;;;;11.04;100.00;99952.34;5095702;28;20084;-76
2022/10/04 05:54:21;;;;;;;10.02;3.78;;;;;;;11.25;100.00;99959.25;5095389;28;20024;-76
2022/10/04 05:56:58;;;;;;;11.77;3.35;;;;;;;11.54;100.00;99957.09;5095438;28;20423;-76
2022/10/04 05:59:32;;;;;;;10.73;3.70;;;;;;;11.74;100.00;99957.03;5095036;28;20020;-76
2022/10/04 06:02:25;;;;;;;19.58;4.60;;;;;;;11.80;100.00;99968.94;5095166;28;20036;-76
2022/10/04 06:05:21;;;;;;;12.23;4.07;;;;;;;11.78;100.00;99969.00;5095239;28;20016;-76
2022/10/04 06:07:57;;;;;;;13.35;4.47;;;;;;;11.88;100.00;99967.72;5095208;28;20024;-76
2022/10/04 06:10:31;;;;;;;11.77;3.92;;;;;;;11.88;100.00;99972.06;5094801;28;20032;-76
2022/10/04 06:13:19;;;;;;;13.02;3.92;;;;;;;12.00;100.00;99968.88;5095229;28;20027;-76
2022/10/04 06:15:48;;;;;;;11.60;3.78;;;;;;;12.33;100.00;99966.41;5095027;28;20026;-76
2022/10/04 06:18:22;;;;;;;12.45;4.22;;;;;;;12.34;100.00;99964.66;5095064;28;20027;-76
2022/10/04 06:21:18;;;;;;;12.05;3.70;;;;;;;12.34;100.00;99981.16;5094798;28;20036;-76
2022/10/04 06:23:52;;;;;;;10.75;3.63;;;;;;;12.25;100.00;99968.56;5095021;28;20036;-76
2022/10/04 06:26:23;;;;;;;11.48;4.30;;;;;;;12.21;100.00;99977.44;5095000;28;20019;-76
2022/10/04 06:28:55;;;;;;;13.43;3.95;;;;;;;12.24;100.00;99972.09;5094808;28;20056;-76
2022/10/04 06:31:38;;;;;;;11.13;4.00;;;;;;;12.36;100.00;99974.09;5094652;28;20032;-76
2022/10/04 06:34:33;;;;;;;11.43;3.80;;;;;;;12.61;100.00;99981.59;5094791;28;20038;-76
2022/10/04 06:37:36;;;;;;;8.68;3.45;;;;;;;12.58;100.00;99984.34;5094609;28;20066;-76
2022/10/04 06:40:05;;;;;;;10.88;3.50;;;;;;;12.62;100.00;99993.72;5012295;28;20117;-76
2022/10/04 06:42:44;;;;;;;9.23;3.83;;;;;;;12.62;100.00;99990.25;5011825;28;20060;-76
2022/10/04 06:45:28;;;;;;;10.98;4.35;;;;;;;12.51;100.00;99996.00;5012141;28;20036;-76
2022/10/04 06:47:59;;;;;;;13.18;4.40;;;;;;;12.40;100.00;100006.16;5012115;28;20037;-76
2022/10/04 06:51:04;;;;;;;9.05;3.88;;;;;;;12.33;100.00;99999.53;5011781;28;20032;-76
2022/10/04 06:53:50;;;;;;;8.40;3.72;;;;;;;12.41;100.00;100006.06;4953289;28;20487;-76
2022/10/04 06:57:00;;;;;;;9.20;3.80;;;;;;;12.84;100.00;100008.34;4953698;29;20023;-76
2022/10/04 06:59:25;;;;;;;8.88;3.63;;;;;;;13.27;100.00;100008.78;4915251;29;20028;-76
2022/10/04 07:01:56;;;;;;;12.50;4.07;;;;;;;13.50;100.00;100011.06;4915366;29;20111;-76
2022/10/04 07:04:30;;;;;;;;;;;;;;;13.48;100.00;100016.38;4915437;29;20127;-76
2022/10/04 07:07:34;;;;;;;9.60;3.40;;;;;;;13.72;100.00;100015.97;4915178;29;19994;-76
2022/10/04 07:10:15;;;;;;;9.43;3.47;;;;;;;14.21;100.00;100008.06;4915202;29;20498;-76
2022/10/04 07:13:13;;;;;;;8.93;3.40;;;;;;;14.95;97.29;100023.91;4914890;29;20596;-76
2022/10/04 07:16:09;;;;;;;9.05;3.65;;;;;;;15.38;93.39;100026.63;4972214;28;20496;-76
2022/10/04 07:18:56;;;;;;;11.90;4.10;;;;;;;15.52;92.46;100020.53;4914841;29;20436;-76
2022/10/04 07:21:26;;;;;;;13.77;3.88;;;;;;;15.84;90.75;100021.19;4915136;29;20435;-76
2022/10/04 07:24:00;;;;;;;8.68;3.97;;;;;;;15.82;88.43;100011.72;4914856;29;20051;-76
2022/10/04 07:26:35;;;;;;;11.73;3.67;;;;;;;15.53;88.07;100032.72;4914606;29;20032;-76
2022/10/04 07:29:22;;;;;;;8.63;3.30;;;;;;;15.66;88.60;100027.56;4915251;28;20456;-76
2022/10/04 07:32:00;;;;;;;9.80;3.40;;;;;;;15.47;87.98;100026.06;4971921;28;20054;-76
2022/10/04 07:34:29;;;;;;;12.52;3.80;;;;;;;15.23;87.75;100015.25;4972036;28;20031;-76
2022/10/04 07:37:02;;;;;;;10.85;3.10;;;;;;;15.19;87.74;100021.63;4972050;28;20043;-76
2022/10/04 07:39:33;;;;;;;10.85;3.20;;;;;;;15.14;88.20;100021.06;4971729;28;20039;-76
2022/10/04 07:42:14;;;;;;;11.80;4.28;;;;;;;15.17;87.53;100031.38;4972001;28;20085;-76
2022/10/04 07:44:43;;;;;;;14.68;4.65;;;;;;;15.14;87.35;100018.44;4971954;28;20351;-76
2022/10/04 07:47:20;;;;;;;10.88;4.13;;;;;;;15.36;87.06;100032.88;4972204;28;20065;-76
2022/10/04 07:49:49;;;;;;;9.63;3.15;;;;;;;15.39;87.53;100027.47;4971750;28;20043;-76
2022/10/04 07:52:43;;;;;;;8.48;3.13;;;;;;;15.68;85.42;100036.22;4994321;28;20429;-76
2022/10/04 07:55:39;;;;;;;12.57;3.28;;;;;;;15.70;85.81;100047.47;5045620;28;20117;-76
2022/10/04 07:58:12;;;;;;;9.55;3.67;;;;;;;15.71;84.64;100038.63;5093186;28;20503;-76
2022/10/04 08:00:56;;;;;;;7.97;3.50;;;;;;;15.55;84.93;100040.47;5092784;28;20024;-76
2022/10/04 08:03:36;;;;;;;8.75;3.63;;;;;;;15.29;85.72;100061.25;5093331;28;20430;-76
2022/10/04 08:06:29;;;;;;;10.82;4.25;;;;;;;14.92;86.59;100060.81;5092475;28;20040;-76
2022/10/04 08:09:27;;;;;;;12.85;4.03;;;;;;;14.54;86.90;100065.63;5092785;28;20105;-76
2022/10/04 08:12:12;;;;;;;9.57;3.38;;;;;;;14.35;87.91;100065.78;5092815;28;20027;-76
2022/10/04 08:14:55;;;;;;;11.32;3.95;;;;;;;14.32;88.55;100071.19;5092705;28;20095;-76
2022/10/04 08:17:34;;;;;;;9.98;3.63;;;;;;;14.39;89.18;100072.53;5092781;28;20024;-76
2022/10/04 08:19:59;;;;;;;9.52;3.63;;;;;;;14.72;88.76;100069.00;5092952;28;20065;-76
2022/10/04 08:22:49;;;;;;;10.07;3.67;;;;;;;15.04;86.32;100071.53;5092807;28;20024;-76
2022/10/04 08:25:25;;;;;;;9.38;3.40;;;;;;;15.02;85.66;100062.91;5092743;28;20363;-76
2022/10/04 08:31:15;;;;;;;10.18;3.60;;;;;;;14.49;87.35;100083.38;5091402;28;20023;-76
2022/10/04 08:33:58;;;;;;;7.25;3.30;;;;;;;14.41;87.63;100082.94;5071960;28;20051;-76
2022/10/04 08:37:01;;;;;;;10.70;3.65;;;;;;;14.69;88.21;100082.25;5072450;28;20113;-76
2022/10/04 08:39:51;;;;;;;8.60;3.35;;;;;;;14.66;87.42;100077.19;5076015;28;20106;-76
2022/10/04 08:42:40;;;;;;;11.40;3.65;;;;;;;14.88;88.68;100085.53;5092358;28;20065;-76
2022/10/04 08:45:31;;;;;;;7.00;2.78;;;;;;;15.11;88.21;100084.19;5092456;28;20024;-76
2022/10/04 08:48:21;;;;;;;12.10;3.40;;;;;;;15.26;87.02;100085.09;5092230;28;20026;-76
2022/10/04 08:51:24;;;;;;;5.53;3.00;;;;;;;15.64;85.75;100081.94;5092424;28;20020;-76
2022/10/04 08:54:19;;;;;;;11.23;3.42;;;;;;;15.86;83.22;100078.88;5092345;28;20016;-76
2022/10/04 08:57:03;;;;;;;7.53;3.20;;;;;;;15.97;83.53;100089.59;5091920;28;20103;-76
2022/10/04 08:59:45;;;;;;;5.30;2.85;;;;;;;16.12;83.10;100083.34;5092305;28;20020;-76
2022/10/04 09:02:48;;;;;;;11.07;2.88;;;;;;;16.13;81.64;100085.03;5092381;28;20032;-76
2022/10/04 09:05:39;;;;;;;8.82;2.90;;;;;;;16.02;81.96;100090.13;5091877;28;20016;-76
2022/10/04 09:08:14;;;;;;;;;;;;;;;15.85;81.95;100093.81;5092646;28;20028;-76
2022/10/04 09:10:43;;;;;;;6.20;2.60;;;;;;;15.54;82.64;100101.81;5091937;28;19991;-76
2022/10/04 09:13:14;;;;;;;7.70;3.10;;;;;;;15.34;82.86;100106.47;5091978;28;20383;-76
2022/10/04 09:16:07;;;;;;;8.25;2.75;;;;;;;15.24;83.64;100105.31;5091672;28;20020;-76
2022/10/04 09:19:11;;;;;;;9.63;3.35;;;;;;;15.12;84.26;100106.88;5093523;28;20482;-76
2022/10/04 09:21:42;;;;;;;6.05;2.97;;;;;;;14.81;84.83;100088.59;5095845;28;20024;-76
2022/10/04 09:24:16;;;;;;;8.35;2.90;;;;;;;14.86;85.44;100105.75;5096042;28;20459;-76
2022/10/04 09:26:50;;;;;;;8.27;3.35;;;;;;;15.13;85.49;100095.47;5095987;28;20031;-76
2022/10/04 09:29:34;;;;;;;7.95;3.25;;;;;;;15.48;84.11;100100.41;5095992;28;20020;-76
2022/10/04 09:32:35;;;;;;;9.45;3.55;;;;;;;15.77;82.88;100087.34;5095892;28;20026;-76
2022/10/04 09:35:30;;;;;;;9.15;2.53;;;;;;;15.90;81.41;100091.72;5096022;28;20024;-76
2022/10/04 09:38:08;;;;;;;6.95;3.17;;;;;;;15.75;80.49;100108.41;5095922;28;20027;-76
2022/10/04 09:41:02;;;;;;;8.88;2.72;;;;;;;15.63;80.17;100114.38;5095448;28;20491;-76
2022/10/04 09:44:15;;;;;;;9.63;2.78;;;;;;;15.37;81.68;100113.31;5033003;28;20033;-76
2022/10/04 09:47:01;;;;;;;9.45;2.72;;;;;;;15.30;82.81;100114.63;4973858;28;20066;-76
2022/10/04 09:50:00;;;;;;;6.30;2.58;;;;;;;15.41;82.46;100120.06;4974115;28;20026;-76
2022/10/04 09:52:31;;;;;;;10.93;3.05;;;;;;;15.54;82.15;100120.19;4974105;28;20053;-76
2022/10/04 09:55:34;;;;;;;7.25;3.05;;;;;;;15.59;82.07;100120.75;4973832;28;20039;-76
2022/10/04 09:58:15;;;;;;;8.43;3.08;;;;;;;15.57;81.53;100112.97;4974004;28;20034;-76
2022/10/04 10:01:07;;;;;;;10.25;2.67;;;;;;;15.85;81.20;100109.56;4973668;28;20177;-76
2022/10/04 10:03:52;;;;;;;6.45;2.67;;;;;;;16.01;80.49;100113.84;4973680;28;20035;-76
2022/10/04 10:06:45;;;;;;;6.30;2.90;;;;;;;16.01;79.44;100108.59;4973548;28;20042;-76
2022/10/04 10:15:33;;;;;;;5.20;2.60;;;;;;;16.20;76.89;100123.16;4973864;28;20078;-76
2022/10/04 10:18:13;;;;;;;5.72;2.10;;;;;;;16.02;76.41;100107.69;4973347;28;20038;-76
2022/10/04 10:21:14;;;;;;;8.18;2.55;;;;;;;15.97;77.27;100131.63;5036704;28;20036;-76
2022/10/04 10:24:07;;;;;;;7.00;2.60;;;;;;;15.69;78.37;100114.91;5014484;28;20030;-76
2022/10/04 10:26:52;;;;;;;6.07;2.38;;;;;;;15.53;79.14;100134.25;5032196;28;20036;-76
2022/10/04 10:29:36;;;;;;;7.18;3.00;;;;;;;15.43;79.67;100133.97;5031615;28;20029;-76
2022/10/04 10:32:04;;;;;;;6.22;2.65;;;;;;;15.47;80.45;100135.47;5032039;28;20492;-76
2022/10/04 10:34:52;;;;;;;8.43;2.72;;;;;;;15.51;80.24;100141.38;5031953;28;20029;-76
2022/10/04 10:37:34;;;;;;;9.38;3.10;;;;;;;15.44;80.32;100146.16;5031927;28;20036;-76
2022/10/04 10:40:18;;;;;;;9.50;2.85;;;;;;;15.36;78.19;100145.75;5031776;28;20076;-76
2022/10/04 10:43:17;;;;;;;4.88;2.85;;;;;;;15.39;78.02;100137.69;5031638;28;20025;-76
2022/10/04 10:46:05;;;;;;;6.05;2.72;;;;;;;15.64;77.90;100140.59;4992187;28;20035;-76
2022/10/04 10:48:33;;;;;;;6.88;2.47;;;;;;;16.00;76.96;100148.97;4992827;28;20058;-76
2022/10/04 10:51:30;;;;;;;4.78;2.65;;;;;;;16.15;75.81;100143.63;4992317;28;20092;-76
2022/10/04 10:54:14;;;;;;;7.82;2.67;;;;;;;16.18;75.21;100135.56;4992204;28;20073;-76
2022/10/04 10:56:49;;;;;;;5.47;2.45;;;;;;;16.30;75.16;100149.69;4992176;28;20069;-76
2022/10/04 10:59:38;;;;;;;7.47;2.45;;;;;;;16.51;74.80;100136.13;4992362;28;20486;-76
2022/10/04 11:02:35;;;;;;;5.50;2.47;;;;;;;16.59;75.39;100133.88;5051543;28;20353;-76
2022/10/04 11:05:23;;;;;;;6.80;2.80;;;;;;;16.66;74.12;100146.53;5051336;28;20031;-76
2022/10/04 11:08:18;;;;;;;4.82;2.50;;;;;;;16.51;73.92;100141.41;5049097;28;20037;-76
2022/10/04 11:11:00;;;;;;;5.75;2.65;;;;;;;16.32;74.16;100139.94;5034354;28;20401;-76
2022/10/04 11:13:46;;;;;;;6.70;2.38;;;;;;;16.30;74.36;100148.84;5051267;28;20025;-76
2022/10/04 11:16:34;;;;;;;7.82;2.60;;;;;;;16.34;74.62;100142.47;5051222;28;20040;-76
2022/10/04 11:19:36;;;;;;;8.15;3.22;;;;;;;16.38;74.73;100147.44;5051082;28;20025;-76
2022/10/04 11:22:35;;;;;;;4.68;2.67;;;;;;;16.29;74.93;100158.53;5058007;28;20032;-76
2022/10/04 11:25:06;;;;;;;4.63;2.50;;;;;;;16.17;75.69;100146.97;5093759;28;20456;-76
2022/10/04 11:27:48;;;;;;;4.68;2.83;;;;;;;16.13;75.79;100142.84;5094017;28;20016;-76
2022/10/04 11:30:38;;;;;;;7.72;2.80;;;;;;;15.99;75.54;100142.03;5093818;28;20024;-76
2022/10/04 11:33:39;;;;;;;6.78;2.40;;;;;;;16.10;75.67;100147.47;5093949;28;20024;-76
2022/10/04 11:36:26;;;;;;;7.20;2.50;;;;;;;16.23;74.86;100145.78;5093567;28;20020;-76
2022/10/04 11:39:22;;;;;;;7.43;2.28;;;;;;;16.23;73.78;100155.44;5093621;28;20023;-76
2022/10/04 11:42:00;;;;;;;6.82;2.80;;;;;;;16.13;73.42;100155.16;5092403;28;20020;-76
2022/10/04 11:44:40;;;;;;;7.60;2.78;;;;;;;15.99;73.10;100149.91;5093589;28;20474;-76
2022/10/04 11:47:14;;;;;;;6.55;2.53;;;;;;;15.85;74.25;100162.09;5093396;28;20028;-76
2022/10/04 11:49:58;;;;;;;6.93;2.50;;;;;;;15.79;73.94;100170.31;5093084;28;20031;-76
2022/10/04 11:53:02;;;;;;;5.20;2.33;;;;;;;15.70;72.58;100166.47;5093330;28;20023;-76
2022/10/04 11:55:45;;;;;;;4.90;2.03;;;;;;;15.71;72.52;100167.31;5093189;28;20024;-76
2022/10/04 11:59:01;;;;;;;3.58;1.98;;;;;;;15.81;73.12;100165.84;5093107;28;20074;-76
2022/10/04 12:01:51;;;;;;;4.47;2.65;;;;;;;15.89;72.32;100160.13;5030750;28;20124;-76
2022/10/04 12:04:44;;;;;;;10.68;2.40;;;;;;;16.03;72.33;100159.28;5030427;28;20468;-76
2022/10/04 12:07:33;;;;;;;4.70;2.50;;;;;;;16.18;72.67;100147.81;5030258;28;20099;-76
2022/10/04 12:09:58;;;;;;;10.38;5.25;;;;;;;16.44;73.10;100159.38;5029934;28;20044;-76
2022/10/04 12:12:38;;;;;;;6.00;2.53;;;;;;;16.60;72.65;100156.59;5030263;28;20029;-76
2022/10/04 12:15:13;;;;;;;8.65;4.35;;;;;;;16.79;73.43;100146.63;5029966;28;20022;-76
2022/10/04 12:18:20;;;;;;;8.73;4.10;;;;;;;16.98;73.43;100133.13;5030133;28;20036;-76
2022/10/04 12:20:52;;;;;;;5.38;2.95;;;;;;;17.22;72.41;100143.81;5029941;28;20034;-76
2022/10/04 12:23:18;;;;;;;5.75;2.75;;;;;;;17.14;71.50;100151.38;5029948;28;20037;-76
2022/10/04 12:26:06;;;;;;;5.18;2.33;;;;;;;16.98;71.31;100159.44;5029730;28;20366;-76
2022/10/04 12:28:46;;;;;;;7.10;2.83;;;;;;;16.70;71.46;100157.72;5030064;28;20248;-76